Terminal Aerodrome Forecast
Issued by NWS

Current Version | Previous Version | Text Only | Print | Product List | Glossary On
Versions: 1 2 3 4 5 6 7 8 9 10 11 12 13 14 15 16 17 18 19 20 21 22 23 24 25 26 27 28 29
000
FTUS44 KFWD 071739
TAFFTW
TAF
KFTW 071739Z 0718/0818 14005KT P6SM SCT035 BKN150 OVC250
     FM072000 14005KT P6SM BKN009
     FM080000 36015G25KT P6SM BKN015
     FM080300 36019G29KT 5SM -DZ BKN012
     FM080900 01018G28KT P6SM BKN020
     FM081500 01015G25KT P6SM BKN150=

USA.gov is the U.S. government's official web portal to all federal, state and local government web resources and services.